Time;durP1;ratioP1;P1;durP2;ratioP2;P2;SDS_P1;SDS_P2;PMS_P1;PMS_P2;Temp;Humidity;BMP_temperature;BMP_pressure;BME280_temperature;BME280_humidity;BME280_pressure;Samples;Min_cycle;Max_cycle;Signal;HPM_P1;HPM_P2
2023/02/08 00:00:32;;;;;;;22.07;14.10;;;4.60;47.10;;;;;;5062889;28;20439;-54
2023/02/08 00:02:57;;;;;;;20.63;13.90;;;4.60;47.20;;;;;;5067194;28;20249;-55
2023/02/08 00:05:23;;;;;;;22.70;15.90;;;4.50;47.40;;;;;;5072125;28;20196;-55
2023/02/08 00:07:48;;;;;;;23.03;15.87;;;4.50;47.70;;;;;;5062858;28;20188;-54
2023/02/08 00:10:14;;;;;;;21.20;14.10;;;4.40;48.50;;;;;;5064952;28;20187;-55
2023/02/08 00:12:39;;;;;;;23.73;14.93;;;4.40;48.10;;;;;;5068783;28;20187;-55
2023/02/08 00:15:05;;;;;;;19.57;13.93;;;4.40;48.00;;;;;;5064461;28;20200;-53
2023/02/08 00:17:31;;;;;;;21.07;15.00;;;4.40;48.00;;;;;;5072931;28;20231;-54
2023/02/08 00:19:56;;;;;;;18.40;13.53;;;4.30;47.90;;;;;;5065297;28;20249;-53
2023/02/08 00:22:22;;;;;;;22.57;13.57;;;4.30;47.90;;;;;;5069396;28;20278;-54
2023/02/08 00:24:49;;;;;;;18.37;13.20;;;4.20;47.90;;;;;;5065119;28;20192;-54
2023/02/08 00:27:16;;;;;;;19.50;11.70;;;4.20;47.80;;;;;;5067852;28;20245;-54
2023/02/08 00:29:41;;;;;;;17.77;13.30;;;4.10;47.90;;;;;;5054387;28;20434;-54
2023/02/08 00:32:07;;;;;;;20.10;13.23;;;4.10;48.20;;;;;;5071574;28;20449;-54
2023/02/08 00:34:34;;;;;;;21.70;13.43;;;4.10;48.30;;;;;;5068510;28;20196;-55
2023/02/08 00:37:00;;;;;;;15.83;12.40;;;4.10;48.20;;;;;;5065004;28;20188;-54
2023/02/08 00:39:26;;;;;;;19.30;13.63;;;4.10;48.30;;;;;;5065547;28;20520;-55
2023/02/08 00:41:52;;;;;;;17.90;11.57;;;4.00;48.30;;;;;;5072700;28;21780;-54
2023/02/08 00:44:17;;;;;;;29.63;14.80;;;4.00;48.40;;;;;;5072479;28;20195;-54
2023/02/08 00:46:43;;;;;;;17.00;13.33;;;4.00;48.40;;;;;;5072948;28;20278;-55
2023/02/08 00:49:09;;;;;;;18.40;12.63;;;4.00;48.50;;;;;;5066445;28;20200;-55
2023/02/08 00:51:34;;;;;;;19.20;13.20;;;3.90;48.60;;;;;;5060448;28;20195;-56
2023/02/08 00:54:00;;;;;;;17.40;11.90;;;3.90;48.70;;;;;;5070722;28;20188;-54
2023/02/08 00:56:25;;;;;;;19.53;11.73;;;3.90;48.70;;;;;;5067860;28;20202;-55
2023/02/08 00:58:51;;;;;;;20.43;11.60;;;3.90;48.80;;;;;;5071277;28;20231;-55
2023/02/08 01:01:17;;;;;;;14.73;11.80;;;3.90;48.80;;;;;;5067975;28;20196;-54
2023/02/08 01:03:43;;;;;;;20.03;13.13;;;3.90;48.80;;;;;;5067269;28;20188;-55
2023/02/08 01:06:15;;;;;;;19.67;12.70;;;3.90;48.60;;;;;;5062094;28;20437;-53
2023/02/08 01:08:41;;;;;;;22.93;14.80;;;3.80;48.50;;;;;;5069532;28;20445;-55
2023/02/08 01:11:11;;;;;;;19.90;11.80;;;3.80;48.50;;;;;;5071915;28;20438;-55
2023/02/08 01:13:38;;;;;;;16.30;11.53;;;3.80;48.70;;;;;;5057588;28;20193;-53
2023/02/08 01:16:28;;;;;;;17.83;11.40;;;3.90;48.90;;;;;;5068326;28;21032;-55
2023/02/08 01:18:57;;;;;;;18.10;11.63;;;3.90;48.80;;;;;;5062780;28;20517;-53
2023/02/08 01:21:25;;;;;;;20.93;12.70;;;3.90;48.60;;;;;;5068514;28;20422;-52
2023/02/08 01:23:51;;;;;;;17.47;12.33;;;3.80;48.40;;;;;;5066223;28;20450;-55
2023/02/08 01:26:18;;;;;;;18.13;12.60;;;3.70;48.80;;;;;;5065239;28;20889;-52
2023/02/08 01:28:45;;;;;;;16.97;12.30;;;3.70;48.90;;;;;;5069606;28;20491;-55
2023/02/08 01:31:29;;;;;;;18.50;12.07;;;3.70;49.00;;;;;;5065718;28;20502;-55
2023/02/08 01:33:56;;;;;;;18.90;12.20;;;3.60;48.90;;;;;;5067084;28;20442;-55
2023/02/08 01:36:22;;;;;;;15.70;12.40;;;3.60;49.10;;;;;;5060735;28;20581;-55
2023/02/08 01:38:48;;;;;;;19.80;11.63;;;3.60;49.40;;;;;;5053638;28;20486;-54
2023/02/08 01:41:35;;;;;;;20.00;12.77;;;3.50;49.20;;;;;;5061060;28;20528;-55
2023/02/08 01:44:07;;;;;;;17.83;12.77;;;3.60;49.10;;;;;;5062939;28;20193;-53
2023/02/08 01:46:38;;;;;;;18.60;12.70;;;3.60;49.10;;;;;;5061766;28;20472;-55
2023/02/08 01:49:11;;;;;;;17.60;12.80;;;3.50;49.30;;;;;;5067976;28;20438;-56
2023/02/08 01:51:51;;;;;;;16.60;11.07;;;3.50;49.40;;;;;;5063695;28;20469;-55
2023/02/08 01:54:20;;;;;;;17.30;12.03;;;3.40;49.40;;;;;;5066389;28;20449;-54
2023/02/08 01:56:46;;;;;;;18.33;10.90;;;3.40;49.50;;;;;;5065950;28;20439;-53
2023/02/08 01:59:23;;;;;;;17.03;11.30;;;3.40;49.40;;;;;;5067602;28;20588;-55
2023/02/08 02:01:50;;;;;;;15.90;11.80;;;3.40;49.40;;;;;;5068977;28;20465;-55
2023/02/08 02:04:16;;;;;;;17.60;11.00;;;3.40;49.20;;;;;;5068369;28;20836;-55
2023/02/08 02:06:48;;;;;;;13.93;10.50;;;3.50;49.30;;;;;;5059821;28;20438;-55
2023/02/08 02:09:27;;;;;;;17.17;11.10;;;3.30;49.20;;;;;;5069642;28;20598;-55
2023/02/08 02:11:54;;;;;;;16.50;10.40;;;3.30;49.10;;;;;;5066350;28;20457;-55
2023/02/08 02:14:21;;;;;;;15.03;10.03;;;3.30;49.10;;;;;;5063985;28;20465;-54
2023/02/08 02:16:46;;;;;;;18.73;11.80;;;3.30;49.20;;;;;;5067322;28;20469;-54
2023/02/08 02:19:23;;;;;;;17.50;12.40;;;3.20;49.10;;;;;;5068985;28;20524;-55
2023/02/08 02:22:11;;;;;;;14.77;11.27;;;3.20;49.30;;;;;;5068703;28;20196;-54
2023/02/08 02:24:56;;;;;;;14.80;11.20;;;3.10;49.20;;;;;;5065042;28;20446;-55
2023/02/08 02:27:56;;;;;;;14.80;9.67;;;3.00;49.40;;;;;;5064587;28;20443;-55
2023/02/08 02:30:47;;;;;;;14.90;9.90;;;3.00;49.70;;;;;;5031419;28;20458;-55
2023/02/08 02:33:27;;;;;;;14.93;9.00;;;3.00;49.70;;;;;;5061676;28;20442;-54
2023/02/08 02:36:21;;;;;;;13.00;8.83;;;3.00;49.60;;;;;;5066329;28;20449;-55
2023/02/08 02:39:22;;;;;;;12.77;8.30;;;3.00;49.50;;;;;;5065231;28;20493;-55
2023/02/08 02:45:13;;;;;;;13.50;9.87;;;3.00;49.10;;;;;;5066412;28;20505;-54
2023/02/08 02:47:55;;;;;;;16.73;9.53;;;2.90;48.90;;;;;;5066932;28;20543;-55
2023/02/08 02:50:32;;;;;;;17.50;11.20;;;2.90;48.90;;;;;;5067045;28;20831;-55
2023/02/08 02:53:10;;;;;;;12.77;9.27;;;2.80;48.90;;;;;;5061164;28;20438;-53
2023/02/08 02:55:42;;;;;;;18.40;9.53;;;2.90;48.90;;;;;;5064477;28;20433;-53
2023/02/08 02:58:10;;;;;;;14.27;8.97;;;2.80;48.80;;;;;;5068871;28;20497;-53
2023/02/08 03:00:36;;;;;;;12.17;8.40;;;2.80;48.70;;;;;;5067054;28;20449;-55
2023/02/08 03:03:02;;;;;;;12.07;8.97;;;2.70;48.70;;;;;;5066570;28;20446;-55
2023/02/08 03:05:29;;;;;;;12.83;7.87;;;2.80;48.90;;;;;;5067436;28;20819;-54
2023/02/08 03:08:12;;;;;;;14.00;9.10;;;2.70;49.00;;;;;;5069079;28;20324;-55
2023/02/08 03:11:06;;;;;;;14.30;7.50;;;2.70;49.10;;;;;;5061759;28;20439;-54
2023/02/08 03:14:01;;;;;;;10.33;7.63;;;2.70;49.20;;;;;;5064673;28;20557;-56
2023/02/08 03:16:57;;;;;;;11.47;7.40;;;2.70;49.30;;;;;;5065862;28;20490;-52
2023/02/08 03:19:37;;;;;;;11.77;7.40;;;2.70;49.20;;;;;;5046545;28;20861;-54
2023/02/08 03:22:39;;;;;;;11.00;7.93;;;2.60;49.20;;;;;;5067525;28;20528;-54
2023/02/08 03:25:17;;;;;;;16.93;9.20;;;2.60;49.30;;;;;;5060371;28;20446;-53
2023/02/08 03:27:51;;;;;;;10.13;7.77;;;2.50;49.60;;;;;;5060764;28;20914;-54
2023/02/08 03:30:47;;;;;;;9.40;7.10;;;2.50;49.80;;;;;;5056377;28;21140;-55
2023/02/08 03:33:24;;;;;;;10.60;7.33;;;2.50;49.50;;;;;;5065587;28;20462;-55
2023/02/08 03:35:56;;;;;;;13.67;8.40;;;2.60;49.40;;;;;;5065418;28;20476;-56
2023/02/08 03:38:39;;;;;;;15.10;8.80;;;2.60;49.20;;;;;;5070188;28;20513;-55
2023/02/08 03:41:09;;;;;;;12.50;8.83;;;2.60;49.00;;;;;;5064641;28;20462;-55
2023/02/08 03:43:41;;;;;;;13.77;8.10;;;2.60;48.80;;;;;;5050149;28;20431;-53
2023/02/08 03:46:22;;;;;;;11.90;7.83;;;2.50;48.70;;;;;;5062455;28;20454;-55
2023/02/08 03:48:53;;;;;;;12.17;8.30;;;2.50;49.30;;;;;;5065729;28;20438;-55
2023/02/08 03:51:22;;;;;;;11.77;8.43;;;2.40;49.80;;;;;;5066863;28;20444;-55
2023/02/08 03:53:50;;;;;;;13.87;8.97;;;2.50;50.00;;;;;;5067972;28;20442;-53
2023/02/08 03:56:24;;;;;;;10.30;8.10;;;2.40;49.70;;;;;;5068428;28;20446;-56
2023/02/08 03:59:00;;;;;;;11.73;8.10;;;2.50;49.50;;;;;;5053001;28;20479;-53
2023/02/08 04:01:31;;;;;;;11.97;8.03;;;2.50;49.40;;;;;;5065793;28;20516;-55
2023/02/08 04:03:58;;;;;;;10.70;7.83;;;2.40;49.40;;;;;;5049798;28;20495;-53
2023/02/08 04:06:24;;;;;;;11.93;8.30;;;2.30;49.30;;;;;;5069060;28;20454;-52
2023/02/08 04:08:49;;;;;;;10.20;7.93;;;2.40;49.40;;;;;;5066040;28;20438;-55
2023/02/08 04:11:15;;;;;;;10.33;8.23;;;2.40;49.30;;;;;;5066374;28;20192;-55
2023/02/08 04:13:41;;;;;;;11.40;7.77;;;2.40;49.20;;;;;;5063904;28;20842;-55
2023/02/08 04:16:10;;;;;;;12.27;8.73;;;2.40;49.10;;;;;;5066517;28;20555;-53
2023/02/08 04:18:35;;;;;;;15.13;8.00;;;2.40;49.10;;;;;;5067928;28;20786;-53
2023/02/08 04:21:01;;;;;;;13.37;9.23;;;2.30;49.20;;;;;;5069459;28;20418;-54
2023/02/08 04:23:26;;;;;;;10.30;7.43;;;2.30;49.80;;;;;;5065804;28;20208;-54
2023/02/08 04:25:52;;;;;;;13.73;8.47;;;2.30;49.40;;;;;;5062347;28;20192;-55
2023/02/08 04:28:17;;;;;;;14.60;8.47;;;2.30;49.60;;;;;;5065446;28;20216;-52
2023/02/08 04:30:43;;;;;;;10.23;7.40;;;2.30;49.60;;;;;;5065577;28;20227;-52
2023/02/08 04:33:10;;;;;;;13.43;8.80;;;2.20;49.60;;;;;;5057570;28;20282;-53
2023/02/08 04:35:35;;;;;;;12.13;8.40;;;2.30;49.70;;;;;;5060402;28;20287;-53
2023/02/08 04:38:01;;;;;;;13.47;8.03;;;2.20;49.50;;;;;;5066115;28;20481;-55
2023/02/08 04:40:27;;;;;;;19.83;8.83;;;2.20;49.50;;;;;;5064594;28;20196;-53
2023/02/08 04:42:52;;;;;;;14.90;8.67;;;2.20;49.40;;;;;;5066957;28;20846;-54
2023/02/08 04:45:18;;;;;;;13.50;8.40;;;2.20;49.40;;;;;;5064724;28;20210;-54
2023/02/08 04:47:43;;;;;;;12.53;8.50;;;2.20;49.40;;;;;;5067272;28;20194;-54
2023/02/08 04:50:09;;;;;;;21.53;9.87;;;2.20;49.20;;;;;;5063684;28;20664;-54
2023/02/08 04:52:34;;;;;;;10.83;8.20;;;2.20;49.00;;;;;;5072460;28;20196;-55
2023/02/08 04:55:00;;;;;;;13.70;7.47;;;2.10;49.00;;;;;;5069273;28;20199;-54
2023/02/08 04:57:25;;;;;;;14.40;8.70;;;2.10;49.10;;;;;;5067410;28;20254;-52
2023/02/08 04:59:51;;;;;;;16.43;8.70;;;2.10;49.40;;;;;;5068603;28;20196;-53
2023/02/08 05:02:16;;;;;;;13.43;8.80;;;2.10;49.30;;;;;;5069308;28;20670;-52
2023/02/08 05:04:42;;;;;;;11.53;9.23;;;2.20;49.50;;;;;;5070571;28;20535;-53
2023/02/08 05:07:08;;;;;;;14.27;9.10;;;2.00;49.30;;;;;;5068819;28;20218;-55
2023/02/08 05:09:33;;;;;;;11.23;9.10;;;2.00;49.40;;;;;;5063354;28;20235;-54
2023/02/08 05:11:59;;;;;;;14.00;9.00;;;2.10;49.40;;;;;;5070388;28;20514;-54
2023/02/08 05:14:25;;;;;;;10.50;8.73;;;2.00;49.10;;;;;;5051188;28;20199;-53
2023/02/08 05:16:50;;;;;;;13.43;8.70;;;2.10;49.30;;;;;;5068580;28;20238;-56
2023/02/08 05:19:16;;;;;;;10.67;8.50;;;2.00;49.10;;;;;;5070221;28;20223;-54
2023/02/08 05:21:41;;;;;;;12.90;8.90;;;2.00;49.10;;;;;;5069452;28;20199;-54
2023/02/08 05:24:11;;;;;;;12.00;8.00;;;2.00;49.00;;;;;;5064812;28;20246;-56
2023/02/08 05:26:37;;;;;;;10.57;7.70;;;1.90;48.90;;;;;;5062446;28;20559;-53
2023/02/08 05:29:03;;;;;;;15.80;8.93;;;2.00;49.00;;;;;;5066807;28;20473;-53
2023/02/08 05:31:29;;;;;;;17.00;9.83;;;1.90;48.90;;;;;;5069653;28;20571;-54
2023/02/08 05:33:54;;;;;;;17.67;10.17;;;1.80;48.80;;;;;;5068701;28;20192;-55
2023/02/08 05:36:22;;;;;;;14.83;10.37;;;1.70;49.00;;;;;;5069741;28;20187;-55
2023/02/08 05:38:47;;;;;;;17.30;11.17;;;1.70;49.30;;;;;;5045324;28;20277;-53
2023/02/08 05:41:13;;;;;;;16.20;10.10;;;1.70;49.20;;;;;;5053900;28;20513;-54
2023/02/08 05:43:39;;;;;;;13.00;9.80;;;1.70;49.30;;;;;;5072539;28;20270;-53
2023/02/08 05:46:05;;;;;;;17.80;11.27;;;1.70;49.50;;;;;;5065850;28;20396;-52
2023/02/08 05:48:31;;;;;;;15.33;9.60;;;1.70;49.50;;;;;;5071077;28;20809;-54
2023/02/08 05:50:58;;;;;;;13.33;9.00;;;1.70;49.60;;;;;;5065302;28;20202;-52
2023/02/08 05:53:24;;;;;;;17.30;10.20;;;1.70;49.80;;;;;;5065820;28;20454;-56
2023/02/08 05:55:50;;;;;;;13.30;9.90;;;1.70;49.80;;;;;;5063318;28;20451;-54
2023/02/08 05:58:15;;;;;;;12.60;8.97;;;1.60;50.20;;;;;;5055642;28;20536;-56
2023/02/08 06:00:41;;;;;;;15.53;9.50;;;1.20;50.70;;;;;;5056967;28;20954;-54
2023/02/08 06:03:07;;;;;;;14.20;9.50;;;1.00;52.00;;;;;;5064814;28;20446;-52
2023/02/08 06:05:37;;;;;;;12.50;9.20;;;1.10;52.10;;;;;;5069727;28;20310;-53
2023/02/08 06:08:02;;;;;;;15.33;9.30;;;1.40;51.80;;;;;;5070566;28;20191;-53
2023/02/08 06:10:28;;;;;;;17.07;10.60;;;1.40;51.20;;;;;;5070274;28;20492;-55
2023/02/08 06:12:53;;;;;;;22.87;11.13;;;1.50;50.70;;;;;;5069429;28;20195;-52
2023/02/08 06:15:19;;;;;;;19.10;11.20;;;1.50;50.40;;;;;;5060155;28;20311;-55
2023/02/08 06:17:45;;;;;;;16.50;10.17;;;1.50;50.10;;;;;;5067712;28;20230;-55
2023/02/08 06:20:10;;;;;;;16.50;10.07;;;1.50;50.00;;;;;;5060684;28;20246;-54
2023/02/08 06:22:36;;;;;;;9.67;6.67;;;1.50;49.90;;;;;;5070650;28;20222;-56
2023/02/08 06:25:02;;;;;;;12.97;9.10;;;1.70;53.40;;;;;;5048776;28;20199;-54
2023/02/08 06:27:28;;;;;;;13.20;9.17;;;2.30;58.10;;;;;;5057218;28;20683;-56
2023/02/08 06:29:53;;;;;;;14.03;9.73;;;2.90;55.60;;;;;;5069427;28;20468;-56
2023/02/08 06:32:19;;;;;;;14.10;10.33;;;3.30;53.60;;;;;;5070337;28;20242;-56
2023/02/08 06:34:47;;;;;;;14.70;9.77;;;3.60;51.20;;;;;;5065183;28;20258;-57
2023/02/08 06:37:12;;;;;;;19.87;13.10;;;3.70;48.40;;;;;;5071181;28;20217;-57
2023/02/08 06:39:38;;;;;;;15.73;10.73;;;3.70;47.50;;;;;;5060149;28;20442;-56
2023/02/08 06:42:04;;;;;;;16.43;9.60;;;3.70;45.80;;;;;;5060316;28;20206;-55
2023/02/08 06:44:29;;;;;;;14.73;8.80;;;3.50;45.40;;;;;;5062886;28;20211;-56
2023/02/08 06:46:55;;;;;;;12.10;8.00;;;3.20;44.90;;;;;;5060984;28;20219;-55
2023/02/08 06:49:20;;;;;;;12.13;8.90;;;3.00;45.30;;;;;;5065159;28;20199;-56
2023/02/08 06:51:46;;;;;;;15.03;9.13;;;2.80;45.60;;;;;;5062473;28;20188;-56
2023/02/08 06:54:11;;;;;;;14.40;9.70;;;2.60;45.80;;;;;;5059783;28;20203;-55
2023/02/08 06:56:37;;;;;;;12.20;8.60;;;2.40;46.30;;;;;;5060148;28;20191;-55
2023/02/08 06:59:02;;;;;;;11.77;9.20;;;2.20;46.80;;;;;;5070019;28;20266;-55
2023/02/08 07:01:28;;;;;;;15.40;9.43;;;2.20;47.10;;;;;;5069216;28;20587;-56
2023/02/08 07:03:54;;;;;;;11.27;7.93;;;2.30;47.30;;;;;;5064713;28;20197;-55
2023/02/08 07:06:19;;;;;;;13.67;10.00;;;2.50;47.30;;;;;;5066005;28;20192;-55
2023/02/08 07:08:46;;;;;;;15.07;9.50;;;2.70;47.10;;;;;;5069943;28;20188;-56
2023/02/08 07:11:14;;;;;;;17.10;10.80;;;2.90;47.10;;;;;;5067953;28;20916;-55
2023/02/08 07:13:40;;;;;;;16.20;11.73;;;3.10;47.10;;;;;;5057715;28;20446;-56
2023/02/08 07:16:08;;;;;;;16.43;11.40;;;3.30;47.10;;;;;;5048633;28;20470;-56
2023/02/08 07:18:33;;;;;;;18.20;10.53;;;3.70;46.70;;;;;;5068118;28;20228;-55
2023/02/08 07:20:59;;;;;;;12.37;9.30;;;4.20;45.90;;;;;;5065905;28;20445;-54
2023/02/08 07:23:25;;;;;;;13.10;9.33;;;4.60;44.70;;;;;;5064019;28;20557;-56
2023/02/08 07:26:03;;;;;;;14.47;10.40;;;4.90;43.90;;;;;;5058881;28;20206;-56
2023/02/08 07:28:30;;;;;;;13.80;9.20;;;5.20;43.20;;;;;;5062163;28;20196;-55
2023/02/08 07:30:56;;;;;;;20.43;12.70;;;5.30;42.70;;;;;;5068910;28;20536;-54
2023/02/08 07:33:22;;;;;;;21.93;14.00;;;5.50;42.60;;;;;;5063377;28;20521;-55
2023/02/08 07:35:48;;;;;;;27.50;15.70;;;5.60;42.20;;;;;;5059178;28;20208;-55
2023/02/08 07:38:14;;;;;;;23.00;15.23;;;5.70;42.00;;;;;;5065507;28;20516;-54
2023/02/08 07:40:40;;;;;;;29.20;16.07;;;5.70;41.70;;;;;;5058391;28;20552;-55
2023/02/08 07:43:05;;;;;;;28.00;13.73;;;5.80;41.70;;;;;;5062837;28;20549;-56
2023/02/08 07:45:38;;;;;;;19.70;13.20;;;5.90;41.60;;;;;;5061691;28;20533;-62
2023/02/08 07:48:04;;;;;;;16.30;11.77;;;5.90;41.50;;;;;;5065749;28;20278;-54
2023/02/08 07:50:29;;;;;;;21.40;12.60;;;5.90;41.50;;;;;;5063098;28;20536;-54
2023/02/08 07:52:55;;;;;;;23.10;13.97;;;5.90;41.50;;;;;;5059861;28;20195;-54
2023/02/08 07:55:21;;;;;;;21.40;12.17;;;5.90;41.60;;;;;;5061762;28;20701;-52
2023/02/08 07:57:47;;;;;;;26.20;13.27;;;5.90;41.60;;;;;;5058473;28;20274;-54
2023/02/08 08:00:15;;;;;;;15.80;11.87;;;5.80;41.70;;;;;;5060870;28;20199;-57
2023/02/08 08:02:41;;;;;;;20.90;12.60;;;5.80;42.00;;;;;;5064897;28;20438;-54
2023/02/08 08:05:07;;;;;;;20.83;13.60;;;5.80;42.20;;;;;;5063432;28;20446;-61
2023/02/08 08:07:33;;;;;;;17.67;11.87;;;5.80;42.40;;;;;;5068054;28;20426;-54
2023/02/08 08:09:59;;;;;;;23.33;12.33;;;5.80;42.70;;;;;;5068847;28;20433;-53
2023/02/08 08:12:25;;;;;;;19.73;12.90;;;5.70;42.80;;;;;;5054357;28;20553;-53
2023/02/08 08:14:50;;;;;;;20.00;14.93;;;5.70;43.00;;;;;;5051054;28;20208;-54
2023/02/08 08:17:18;;;;;;;21.60;12.90;;;5.70;43.50;;;;;;5068779;28;20596;-55
2023/02/08 08:19:44;;;;;;;22.20;13.77;;;5.70;44.10;;;;;;5068661;28;20204;-53
2023/02/08 08:22:10;;;;;;;22.27;13.60;;;5.80;43.60;;;;;;5066259;28;20437;-54
2023/02/08 08:24:36;;;;;;;21.13;12.80;;;5.80;43.50;;;;;;5068575;28;20200;-54
2023/02/08 08:27:02;;;;;;;18.60;13.00;;;5.80;43.70;;;;;;5066771;28;20595;-55
2023/02/08 08:29:31;;;;;;;22.20;13.80;;;5.80;43.70;;;;;;5069833;28;20664;-56
2023/02/08 08:31:56;;;;;;;18.47;12.57;;;5.80;43.30;;;;;;5055978;28;20443;-53
2023/02/08 08:34:28;;;;;;;26.10;14.23;;;5.80;43.50;;;;;;5052500;28;20427;-53
2023/02/08 08:36:57;;;;;;;21.40;13.33;;;5.80;43.60;;;;;;5072646;28;20731;-53
2023/02/08 08:39:23;;;;;;;22.87;13.40;;;5.80;43.80;;;;;;5071380;28;20492;-54
2023/02/08 08:41:49;;;;;;;23.10;14.47;;;5.70;44.10;;;;;;5070191;28;21024;-55
2023/02/08 08:44:14;;;;;;;26.93;13.27;;;5.60;44.00;;;;;;5067966;28;20430;-54
2023/02/08 08:46:40;;;;;;;19.63;12.80;;;5.60;43.90;;;;;;5053513;28;20832;-55
2023/02/08 08:49:06;;;;;;;20.00;12.63;;;5.50;45.60;;;;;;5053502;28;20199;-54
2023/02/08 08:51:34;;;;;;;16.03;11.80;;;5.40;45.20;;;;;;5068599;28;20782;-56
2023/02/08 08:54:00;;;;;;;20.00;12.07;;;5.40;45.30;;;;;;5063577;28;20188;-53
2023/02/08 08:56:26;;;;;;;24.07;12.27;;;5.40;46.00;;;;;;5065628;28;20468;-54
2023/02/08 08:58:52;;;;;;;17.07;11.33;;;5.50;46.30;;;;;;5069907;28;20591;-54
2023/02/08 09:01:17;;;;;;;16.77;12.00;;;5.50;45.70;;;;;;5058868;28;20207;-53
2023/02/08 09:03:43;;;;;;;17.80;11.37;;;5.60;45.50;;;;;;5066703;28;20196;-53
2023/02/08 09:06:08;;;;;;;19.30;12.43;;;5.70;45.30;;;;;;5067104;28;20716;-54
2023/02/08 09:08:34;;;;;;;16.57;12.27;;;5.80;44.50;;;;;;5067933;28;20217;-54
2023/02/08 09:11:04;;;;;;;19.03;11.53;;;5.80;42.70;;;;;;5061619;28;20647;-54
2023/02/08 09:13:30;;;;;;;15.07;11.20;;;5.90;41.30;;;;;;5052564;28;20629;-52
2023/02/08 09:15:56;;;;;;;18.27;11.23;;;5.90;40.50;;;;;;5057775;28;20611;-54
2023/02/08 09:18:21;;;;;;;15.27;10.30;;;6.00;40.50;;;;;;5065187;28;20228;-51
2023/02/08 09:20:47;;;;;;;13.40;10.00;;;5.90;40.00;;;;;;5071750;28;20195;-54
2023/02/08 09:23:13;;;;;;;17.03;10.53;;;5.80;40.40;;;;;;5066243;28;20283;-54
2023/02/08 09:25:39;;;;;;;17.70;11.67;;;5.80;40.10;;;;;;5065949;28;20200;-54
2023/02/08 09:28:05;;;;;;;16.30;11.20;;;5.90;40.30;;;;;;5067083;28;20439;-50
2023/02/08 09:30:31;;;;;;;17.23;10.57;;;6.00;40.10;;;;;;5058855;28;22073;-51
2023/02/08 09:32:56;;;;;;;15.57;11.20;;;6.30;40.30;;;;;;5071755;28;20195;-50
2023/02/08 09:35:22;;;;;;;15.40;10.30;;;6.50;40.40;;;;;;5055823;28;20453;-51
2023/02/08 09:37:53;;;;;;;18.17;11.07;;;6.70;40.20;;;;;;5070432;28;21023;-49
2023/02/08 09:40:25;;;;;;;18.50;11.13;;;6.80;39.60;;;;;;5068006;28;20207;-53
2023/02/08 09:43:18;;;;;;;16.97;10.90;;;7.10;38.60;;;;;;5055535;28;20465;-52
2023/02/08 09:45:50;;;;;;;14.67;10.57;;;7.30;38.10;;;;;;5065042;28;20484;-54
2023/02/08 09:48:23;;;;;;;16.30;11.20;;;7.70;38.40;;;;;;5053595;28;20437;-51
2023/02/08 09:51:04;;;;;;;16.40;11.77;;;7.90;37.70;;;;;;5064619;28;20809;-53
2023/02/08 09:53:39;;;;;;;15.47;10.80;;;8.10;36.70;;;;;;5067938;28;20524;-50
2023/02/08 09:56:10;;;;;;;17.07;10.90;;;8.20;35.70;;;;;;5060353;28;20476;-53
2023/02/08 09:58:48;;;;;;;19.60;11.20;;;8.10;35.40;;;;;;5054448;28;20514;-54
2023/02/08 10:01:30;;;;;;;17.00;11.07;;;8.10;35.20;;;;;;5065635;28;20449;-50
2023/02/08 10:04:13;;;;;;;24.63;10.67;;;8.40;35.90;;;;;;5061589;28;20446;-52
2023/02/08 10:06:39;;;;;;;13.50;10.20;;;8.80;35.30;;;;;;5055520;28;20434;-53
2023/02/08 10:09:09;;;;;;;14.73;10.37;;;9.00;34.80;;;;;;5065593;28;20438;-51
2023/02/08 10:12:00;;;;;;;17.07;10.70;;;9.30;35.50;;;;;;5065626;28;20241;-55
2023/02/08 10:15:00;;;;;;;16.90;11.10;;;9.30;34.50;;;;;;5063435;28;20465;-51
2023/02/08 10:18:01;;;;;;;22.43;13.87;;;9.50;35.00;;;;;;5062005;28;20902;-56
2023/02/08 10:20:51;;;;;;;20.67;15.13;;;9.60;34.80;;;;;;5065055;28;20945;-57
2023/02/08 10:23:46;;;;;;;17.17;11.63;;;9.80;35.10;;;;;;5068062;28;20435;-56
2023/02/08 10:26:16;;;;;;;15.10;10.03;;;10.20;32.90;;;;;;4995524;28;21251;-55
2023/02/08 10:28:53;;;;;;;17.27;9.80;;;10.40;33.00;;;;;;5065324;28;20494;-56
2023/02/08 10:31:37;;;;;;;19.07;11.07;;;10.50;30.80;;;;;;5054860;28;20454;-55
2023/02/08 10:34:40;;;;;;;14.97;10.80;;;10.50;31.10;;;;;;5063946;28;20446;-56
2023/02/08 10:37:23;;;;;;;12.57;10.07;;;10.70;30.40;;;;;;5068002;28;20503;-55
2023/02/08 10:39:50;;;;;;;15.83;9.80;;;10.80;30.20;;;;;;5062770;28;20551;-57
2023/02/08 10:42:22;;;;;;;17.30;10.43;;;11.00;30.20;;;;;;5063048;28;20484;-56
2023/02/08 10:45:14;;;;;;;12.60;10.17;;;11.10;30.50;;;;;;5066262;28;20807;-56
2023/02/08 10:47:53;;;;;;;13.63;10.53;;;11.10;29.40;;;;;;5066418;28;20461;-56
2023/02/08 10:50:24;;;;;;;13.20;10.07;;;11.20;29.60;;;;;;5065389;28;20457;-56
2023/02/08 10:52:50;;;;;;;13.33;10.07;;;11.30;29.80;;;;;;5067751;28;21419;-57
2023/02/08 10:55:18;;;;;;;14.43;10.27;;;11.00;29.20;;;;;;5068400;28;20438;-57
2023/02/08 10:57:47;;;;;;;14.93;9.17;;;11.00;29.50;;;;;;5066959;28;20698;-56
2023/02/08 11:00:21;;;;;;;14.20;9.90;;;11.00;29.80;;;;;;5063237;28;20976;-57
2023/02/08 11:02:49;;;;;;;14.67;10.10;;;11.10;30.00;;;;;;5061152;28;20487;-56
2023/02/08 11:05:19;;;;;;;14.33;9.90;;;11.50;30.10;;;;;;5057311;28;22155;-55
2023/02/08 11:07:45;;;;;;;14.70;10.17;;;11.70;30.60;;;;;;5068614;28;20458;-56
2023/02/08 11:10:19;;;;;;;14.93;10.00;;;12.00;30.70;;;;;;5068468;28;21041;-55
2023/02/08 11:13:17;;;;;;;12.73;8.33;;;12.30;30.00;;;;;;5069155;28;20248;-56
2023/02/08 11:15:55;;;;;;;10.30;7.90;;;12.40;29.00;;;;;;5068729;28;20994;-56
2023/02/08 11:18:37;;;;;;;11.30;8.00;;;12.50;27.70;;;;;;5064642;28;20498;-56
2023/02/08 11:21:10;;;;;;;9.23;7.10;;;12.40;28.20;;;;;;5068597;28;20461;-56
2023/02/08 11:23:39;;;;;;;7.27;6.20;;;12.20;27.40;;;;;;5056397;28;20422;-56
2023/02/08 11:26:16;;;;;;;8.83;6.30;;;12.10;28.00;;;;;;5064541;28;20521;-56
2023/02/08 11:28:42;;;;;;;9.70;6.33;;;12.50;28.00;;;;;;5061515;28;20525;-57
2023/02/08 11:31:18;;;;;;;8.27;6.90;;;12.10;27.70;;;;;;5065575;28;20528;-56
2023/02/08 11:34:00;;;;;;;9.70;6.20;;;12.10;28.30;;;;;;5063707;28;20824;-56
2023/02/08 11:36:27;;;;;;;9.70;6.87;;;12.00;27.60;;;;;;5053521;28;20464;-55
2023/02/08 11:38:53;;;;;;;7.00;5.60;;;12.00;27.90;;;;;;5066423;28;20539;-55
2023/02/08 11:41:20;;;;;;;8.87;5.90;;;12.10;27.80;;;;;;5064964;28;20443;-56
2023/02/08 11:44:04;;;;;;;7.57;6.17;;;12.20;28.00;;;;;;5064461;28;20441;-56
2023/02/08 11:46:33;;;;;;;9.47;6.27;;;12.40;28.30;;;;;;5066643;28;20469;-55
2023/02/08 11:49:00;;;;;;;6.50;5.80;;;12.30;27.70;;;;;;5062706;28;20796;-56
2023/02/08 11:51:34;;;;;;;7.60;6.00;;;12.50;27.90;;;;;;5067747;28;20545;-57
2023/02/08 11:54:01;;;;;;;10.27;6.03;;;12.40;27.80;;;;;;5060364;28;20884;-56
2023/02/08 11:56:31;;;;;;;7.00;5.77;;;12.60;27.50;;;;;;5058456;28;20480;-56
2023/02/08 11:59:22;;;;;;;9.63;6.00;;;12.70;27.20;;;;;;5068608;28;20532;-56
2023/02/08 12:01:48;;;;;;;10.00;5.90;;;12.40;27.70;;;;;;5058998;28;20458;-56
2023/02/08 12:04:15;;;;;;;7.23;5.63;;;12.30;27.60;;;;;;5069842;28;20438;-56
2023/02/08 12:06:41;;;;;;;7.70;5.80;;;12.10;27.70;;;;;;5067093;28;20911;-55
2023/02/08 12:09:30;;;;;;;6.40;5.13;;;12.30;28.50;;;;;;5059076;28;20582;-54
2023/02/08 12:12:05;;;;;;;8.30;5.77;;;12.30;28.20;;;;;;5062822;28;20521;-56
2023/02/08 12:14:48;;;;;;;10.13;5.77;;;11.90;27.90;;;;;;5073088;28;20484;-55
2023/02/08 12:17:41;;;;;;;8.37;5.83;;;11.80;28.40;;;;;;5071605;28;20482;-55
2023/02/08 12:20:31;;;;;;;9.43;5.90;;;11.60;28.20;;;;;;5071524;28;20449;-55
2023/02/08 12:23:24;;;;;;;6.50;4.87;;;11.60;28.50;;;;;;5072761;28;20802;-55
2023/02/08 12:26:22;;;;;;;6.50;5.67;;;11.70;27.90;;;;;;5070233;28;20457;-56
2023/02/08 12:29:06;;;;;;;8.80;5.03;;;11.30;28.30;;;;;;5062824;28;20491;-56
2023/02/08 12:31:54;;;;;;;6.57;5.60;;;11.60;28.50;;;;;;5066780;28;20937;-56
2023/02/08 12:34:41;;;;;;;6.73;5.97;;;11.50;28.50;;;;;;5070227;28;20462;-56
2023/02/08 12:40:51;;;;;;;6.97;5.33;;;11.70;28.20;;;;;;5063011;28;20465;-55
2023/02/08 12:43:46;;;;;;;7.30;5.20;;;11.80;28.70;;;;;;5070922;28;20453;-56
2023/02/08 12:46:37;;;;;;;6.23;5.57;;;11.70;28.60;;;;;;5054848;28;20917;-55
2023/02/08 12:49:20;;;;;;;6.30;4.97;;;11.70;28.60;;;;;;5057131;28;20453;-54
2023/02/08 12:52:02;;;;;;;6.40;4.70;;;11.90;28.10;;;;;;5071235;28;20461;-55
2023/02/08 12:54:59;;;;;;;5.80;4.47;;;12.00;28.00;;;;;;5071362;28;20446;-54
2023/02/08 12:57:28;;;;;;;6.30;4.93;;;12.20;27.60;;;;;;5068731;28;20485;-54
2023/02/08 13:00:06;;;;;;;5.33;4.83;;;12.70;27.90;;;;;;5053569;28;20470;-57
2023/02/08 13:02:56;;;;;;;8.10;4.70;;;12.80;27.40;;;;;;5060557;28;20473;-53
2023/02/08 13:05:24;;;;;;;6.60;4.93;;;12.80;27.30;;;;;;5055102;28;20952;-55
2023/02/08 13:08:02;;;;;;;6.33;5.20;;;12.60;27.10;;;;;;5065907;28;20438;-53